Time;durP1;ratioP1;P1;durP2;ratioP2;P2;SDS_P1;SDS_P2;PMS_P1;PMS_P2;Temp;Humidity;BMP_temperature;BMP_pressure;BME280_temperature;BME280_humidity;BME280_pressure;Samples;Min_cycle;Max_cycle;Signal;HPM_P1;HPM_P2
2022/03/02 00:00:57;;;;;;;32.90;11.35;;;;;;;0.08;100.00;101297.19;4934590;29;20103;-57
2022/03/02 00:03:42;;;;;;;40.47;12.32;;;;;;;0.05;100.00;101310.09;4933258;29;20050;-58
2022/03/02 00:06:27;;;;;;;31.10;11.02;;;;;;;0.08;100.00;101308.50;4940026;29;20523;-62
2022/03/02 00:09:11;;;;;;;38.17;11.73;;;;;;;0.03;100.00;101316.06;4949416;29;20050;-57
2022/03/02 00:11:57;;;;;;;37.67;12.15;;;;;;;-0.17;100.00;101258.66;4934028;29;20046;-57
2022/03/02 00:14:43;;;;;;;35.50;11.27;;;;;;;0.16;100.00;101305.34;4935920;29;20142;-58
2022/03/02 00:17:27;;;;;;;42.42;12.38;;;;;;;0.24;100.00;101296.16;4948733;29;20470;-56
2022/03/02 00:20:13;;;;;;;32.47;12.25;;;;;;;0.32;100.00;101313.06;4952070;29;20610;-56
2022/03/02 00:22:58;;;;;;;40.42;12.80;;;;;;;0.29;100.00;101313.81;4949861;29;20054;-56
2022/03/02 00:25:43;;;;;;;43.97;13.52;;;;;;;0.14;100.00;101310.50;4947650;29;20054;-61
2022/03/02 00:28:28;;;;;;;34.97;12.52;;;;;;;-0.26;100.00;101299.94;4949946;29;20058;-56
2022/03/02 00:31:13;;;;;;;38.97;12.52;;;;;;;-0.39;100.00;101313.19;4919984;29;20050;-57
2022/03/02 00:33:57;;;;;;;32.83;12.57;;;;;;;-0.46;100.00;101311.16;4949954;29;20566;-57
2022/03/02 00:36:43;;;;;;;36.58;13.00;;;;;;;-0.58;100.00;101302.75;4950600;29;20475;-57
2022/03/02 00:39:27;;;;;;;39.53;12.45;;;;;;;-0.56;100.00;101308.91;4951712;29;20065;-59
2022/03/02 00:42:12;;;;;;;39.92;12.98;;;;;;;-0.69;100.00;101293.50;4951652;29;20056;-58
2022/03/02 00:44:57;;;;;;;31.42;11.20;;;;;;;-0.64;100.00;101298.91;4950592;29;20531;-60
2022/03/02 00:47:42;;;;;;;38.53;13.10;;;;;;;-0.36;100.00;101295.09;4951601;29;20089;-58
2022/03/02 00:50:27;;;;;;;45.92;12.73;;;;;;;-0.22;100.00;101288.84;4949750;29;20115;-59
2022/03/02 00:53:13;;;;;;;34.67;11.55;;;;;;;0.02;100.00;101294.28;4909967;29;20057;-55
2022/03/02 00:55:58;;;;;;;31.02;12.38;;;;;;;-0.04;100.00;101276.66;4950396;29;20065;-56
2022/03/02 00:58:42;;;;;;;38.13;12.23;;;;;;;0.28;100.00;101287.66;4950442;29;20058;-54
2022/03/02 01:01:26;;;;;;;40.38;13.48;;;;;;;0.23;100.00;101266.56;4951776;29;20075;-55
2022/03/02 01:04:11;;;;;;;39.03;12.80;;;;;;;0.40;100.00;101278.66;4950007;28;20538;-60
2022/03/02 01:06:56;;;;;;;48.00;12.70;;;;;;;0.45;100.00;101279.75;4949579;29;20077;-54
2022/03/02 01:09:40;;;;;;;31.02;12.75;;;;;;;0.32;100.00;101280.03;4932606;29;20053;-53
2022/03/02 01:12:25;;;;;;;40.63;13.35;;;;;;;0.49;100.00;101286.88;4948971;29;20268;-55
2022/03/02 01:15:12;;;;;;;40.35;12.73;;;;;;;0.63;100.00;101283.16;4934367;29;20102;-57
2022/03/02 01:17:57;;;;;;;35.47;12.55;;;;;;;0.75;100.00;101283.66;4948262;29;20062;-57
2022/03/02 01:20:41;;;;;;;29.20;12.15;;;;;;;0.87;100.00;101280.72;4950099;29;20086;-58
2022/03/02 01:23:26;;;;;;;37.90;12.13;;;;;;;0.68;100.00;101241.59;4948086;29;20138;-59
2022/03/02 01:26:10;;;;;;;30.45;12.25;;;;;;;0.69;100.00;101225.09;4910234;29;20058;-56
2022/03/02 01:28:56;;;;;;;35.95;12.07;;;;;;;0.77;100.00;101239.38;4935666;29;20062;-55
2022/03/02 01:31:41;;;;;;;39.70;12.80;;;;;;;1.02;100.00;101278.75;4931013;29;20135;-54
2022/03/02 01:34:26;;;;;;;41.53;13.10;;;;;;;1.04;100.00;101282.31;4931842;29;20483;-56
2022/03/02 01:37:12;;;;;;;41.30;13.43;;;;;;;1.03;100.00;101270.09;4916570;29;20054;-55
2022/03/02 01:39:57;;;;;;;43.53;14.25;;;;;;;1.05;100.00;101276.25;4931498;29;20050;-56
2022/03/02 01:42:42;;;;;;;33.50;14.15;;;;;;;1.02;100.00;101266.56;4930189;29;20059;-59
2022/03/02 01:45:27;;;;;;;34.85;13.43;;;;;;;1.07;100.00;101277.22;4931573;29;20047;-57
2022/03/02 01:48:12;;;;;;;41.35;15.10;;;;;;;1.09;100.00;101265.09;4928330;29;20204;-56
2022/03/02 01:50:57;;;;;;;40.92;13.15;;;;;;;0.84;100.00;101257.97;4903786;29;20059;-57
2022/03/02 01:53:42;;;;;;;28.70;13.02;;;;;;;0.63;100.00;101251.81;4931056;29;20074;-57
2022/03/02 01:56:27;;;;;;;40.33;14.65;;;;;;;0.53;100.00;101234.00;4918370;29;20102;-58
2022/03/02 01:59:12;;;;;;;38.53;14.10;;;;;;;0.26;100.00;101227.59;4932645;29;20058;-55
2022/03/02 02:01:59;;;;;;;34.10;14.52;;;;;;;0.12;100.00;101217.38;4929583;29;20077;-55
2022/03/02 02:04:43;;;;;;;46.95;14.88;;;;;;;-0.14;100.00;101195.34;4931260;29;20456;-54
2022/03/02 02:07:28;;;;;;;46.47;16.10;;;;;;;0.01;100.00;101215.16;4914683;29;20106;-55
2022/03/02 02:10:13;;;;;;;42.17;16.08;;;;;;;-0.12;100.00;101218.06;4930194;29;20063;-55
2022/03/02 02:12:57;;;;;;;51.53;16.00;;;;;;;-0.33;100.00;101169.28;4903076;29;20106;-54
2022/03/02 02:15:42;;;;;;;41.45;15.02;;;;;;;-0.12;100.00;101176.34;4929410;29;20062;-54
2022/03/02 02:18:27;;;;;;;44.60;15.65;;;;;;;0.23;100.00;101216.16;4931218;29;20084;-53
2022/03/02 02:21:12;;;;;;;53.08;16.73;;;;;;;0.32;100.00;101225.25;4932254;29;20185;-59
2022/03/02 02:23:56;;;;;;;49.65;17.05;;;;;;;0.34;100.00;101215.78;4950049;29;20137;-57
2022/03/02 02:26:41;;;;;;;54.00;16.92;;;;;;;0.17;100.00;101181.13;4945596;29;20098;-55
2022/03/02 02:29:28;;;;;;;50.30;15.55;;;;;;;0.41;100.00;101220.44;4948563;29;20467;-54
2022/03/02 02:32:12;;;;;;;53.42;17.83;;;;;;;0.26;100.00;101169.31;4921017;29;20057;-55
2022/03/02 02:34:58;;;;;;;53.75;16.05;;;;;;;0.48;100.00;101205.94;4936114;29;20074;-56
2022/03/02 02:37:43;;;;;;;50.80;16.15;;;;;;;0.32;100.00;101174.81;4950404;29;20420;-55
2022/03/02 02:40:28;;;;;;;49.92;16.20;;;;;;;0.54;100.00;101214.00;4905815;29;20506;-60
2022/03/02 02:43:16;;;;;;;49.92;17.55;;;;;;;0.56;100.00;101213.28;4951601;28;20098;-58
2022/03/02 02:46:00;;;;;;;61.80;18.55;;;;;;;0.40;100.00;101197.78;4948891;29;20138;-56
2022/03/02 02:48:44;;;;;;;50.78;18.52;;;;;;;0.41;100.00;101199.56;4941987;29;20088;-57
2022/03/02 02:51:29;;;;;;;58.92;19.15;;;;;;;0.48;100.00;101201.63;4930876;29;20535;-57
2022/03/02 02:54:13;;;;;;;57.95;20.38;;;;;;;0.51;100.00;101204.34;4929134;29;20059;-61
2022/03/02 02:56:58;;;;;;;57.40;19.30;;;;;;;0.61;100.00;101205.63;4919120;29;20062;-54
2022/03/02 02:59:43;;;;;;;46.55;18.70;;;;;;;0.61;100.00;101196.09;4927880;29;20062;-61
2022/03/02 03:02:27;;;;;;;50.58;18.52;;;;;;;0.42;100.00;101161.31;4930771;29;20062;-56
2022/03/02 03:05:15;;;;;;;51.00;18.42;;;;;;;0.65;100.00;101200.59;4930058;29;20054;-55
2022/03/02 03:08:10;;;;;;;50.88;17.63;;;;;;;0.60;100.00;101185.56;4927162;29;20131;-55
2022/03/02 03:10:54;;;;;;;43.67;16.08;;;;;;;0.63;100.00;101189.19;4941072;29;20094;-57
2022/03/02 03:13:39;;;;;;;40.72;15.68;;;;;;;0.56;100.00;101181.06;4926439;29;20058;-56
2022/03/02 03:16:23;;;;;;;40.80;16.40;;;;;;;0.59;100.00;101182.06;4928456;29;20055;-60
2022/03/02 03:19:09;;;;;;;42.50;15.48;;;;;;;0.52;100.00;101174.84;4926829;29;20062;-63
2022/03/02 03:21:53;;;;;;;36.63;14.77;;;;;;;0.51;100.00;101179.97;4928623;29;20130;-60
2022/03/02 03:24:38;;;;;;;47.83;15.63;;;;;;;0.11;100.00;101121.72;4930697;29;20179;-60
2022/03/02 03:27:22;;;;;;;48.83;17.52;;;;;;;0.45;100.00;101183.22;4930649;29;20186;-56
2022/03/02 03:30:10;;;;;;;53.07;18.57;;;;;;;0.43;100.00;101160.50;4934498;29;20058;-56
2022/03/02 03:32:56;;;;;;;51.70;17.33;;;;;;;0.47;100.00;101162.41;4918261;29;20462;-58
2022/03/02 03:35:40;;;;;;;48.70;17.08;;;;;;;0.50;100.00;101167.72;4941381;29;20059;-56
2022/03/02 03:38:25;;;;;;;69.28;19.33;;;;;;;0.49;100.00;101164.25;4926218;29;20083;-58
2022/03/02 03:41:09;;;;;;;47.85;17.85;;;;;;;0.38;100.00;101148.97;4915918;29;20138;-58
2022/03/02 03:43:54;;;;;;;71.30;20.58;;;;;;;0.38;100.00;101157.69;4917973;29;20055;-58
2022/03/02 03:46:38;;;;;;;76.00;23.70;;;;;;;0.39;100.00;101151.63;4913988;29;20409;-67
2022/03/02 03:49:23;;;;;;;56.92;22.17;;;;;;;0.20;100.00;101112.59;4914343;29;20074;-57
2022/03/02 03:52:08;;;;;;;67.43;25.98;;;;;;;0.15;100.00;101110.59;4913686;29;20055;-58
2022/03/02 03:54:53;;;;;;;65.47;25.20;;;;;;;0.42;100.00;101166.53;4901031;29;20099;-60
2022/03/02 03:57:38;;;;;;;72.90;25.63;;;;;;;0.33;100.00;101154.00;4912582;29;20111;-56
2022/03/02 04:00:23;;;;;;;71.05;25.17;;;;;;;-0.05;100.00;101108.03;4916774;29;20165;-61
2022/03/02 04:03:07;;;;;;;65.00;22.73;;;;;;;-0.07;100.00;101159.19;4932577;29;20097;-61
2022/03/02 04:05:52;;;;;;;62.58;22.77;;;;;;;-0.11;100.00;101159.00;4932057;29;20058;-56
2022/03/02 04:08:36;;;;;;;67.30;22.70;;;;;;;-0.11;100.00;101139.03;4945833;29;20136;-54
2022/03/02 04:11:20;;;;;;;51.67;21.53;;;;;;;-0.19;100.00;101119.56;4930987;29;20083;-61
2022/03/02 04:14:05;;;;;;;59.47;22.55;;;;;;;-0.22;100.00;101118.53;4932982;29;20051;-55
2022/03/02 04:16:49;;;;;;;69.18;25.23;;;;;;;0.05;100.00;101164.94;4943586;29;20066;-54
2022/03/02 04:19:34;;;;;;;72.97;25.88;;;;;;;-0.22;100.00;101115.94;4945520;29;20141;-55
2022/03/02 04:22:18;;;;;;;88.45;28.67;;;;;;;-0.10;100.00;101159.09;4931133;29;20789;-54
2022/03/02 04:25:03;;;;;;;69.38;26.95;;;;;;;-0.16;100.00;101156.19;4932527;29;20460;-59
2022/03/02 04:27:48;;;;;;;75.50;28.80;;;;;;;-0.18;100.00;101155.25;4930729;29;20057;-52
2022/03/02 04:30:34;;;;;;;77.88;28.70;;;;;;;-0.19;100.00;101163.88;4930947;29;20051;-61
2022/03/02 04:33:21;;;;;;;73.03;26.92;;;;;;;-0.18;100.00;101151.75;4932170;29;20420;-55
2022/03/02 04:36:06;;;;;;;72.82;26.58;;;;;;;-0.13;100.00;101143.31;4904884;29;20094;-56
2022/03/02 04:38:50;;;;;;;70.68;26.20;;;;;;;-0.38;100.00;101092.63;4932420;29;20058;-58
2022/03/02 04:41:35;;;;;;;65.68;26.45;;;;;;;-0.07;100.00;101137.47;4933932;29;20395;-59
2022/03/02 04:44:19;;;;;;;66.05;25.17;;;;;;;0.02;100.00;101143.06;4934395;29;20062;-60
2022/03/02 04:47:04;;;;;;;67.93;26.38;;;;;;;0.01;100.00;101136.97;4934106;29;20063;-61
2022/03/02 04:49:49;;;;;;;66.85;24.25;;;;;;;-0.17;100.00;101109.22;4936391;29;20078;-64
2022/03/02 04:52:34;;;;;;;64.88;27.05;;;;;;;0.03;100.00;101143.97;4951305;29;20054;-60
2022/03/02 04:55:20;;;;;;;74.32;26.08;;;;;;;0.09;100.00;101138.19;4947716;29;20111;-59
2022/03/02 04:58:05;;;;;;;57.85;25.90;;;;;;;0.12;100.00;101133.94;4935706;29;20471;-57
2022/03/02 05:00:49;;;;;;;65.55;27.42;;;;;;;-0.06;100.00;101124.50;4949020;29;20118;-57
2022/03/02 05:03:34;;;;;;;;;;;;;;;-0.02;100.00;101131.63;4924378;29;20058;-59
2022/03/02 05:06:19;;;;;;;56.60;22.70;;;;;;;-0.16;100.00;101111.88;4951593;28;19933;-57
2022/03/02 05:09:03;;;;;;;90.57;30.25;;;;;;;-0.11;100.00;101130.34;4930184;29;20147;-59
2022/03/02 05:11:48;;;;;;;77.30;30.27;;;;;;;-0.24;100.00;101117.56;4942191;29;20045;-56
2022/03/02 05:14:34;;;;;;;83.05;31.17;;;;;;;-0.13;100.00;101135.47;4933083;29;20074;-60
2022/03/02 05:17:18;;;;;;;77.18;29.52;;;;;;;-0.31;100.00;101092.09;4950617;29;20058;-54
2022/03/02 05:20:04;;;;;;;72.57;29.15;;;;;;;-0.01;100.00;101116.88;4948779;29;20113;-55
2022/03/02 05:22:50;;;;;;;65.35;27.92;;;;;;;-0.11;100.00;101086.03;4949673;29;20130;-54
2022/03/02 05:25:37;;;;;;;63.80;25.05;;;;;;;0.13;100.00;101124.44;4936889;29;20537;-56
2022/03/02 05:28:21;;;;;;;65.32;24.23;;;;;;;0.26;100.00;101117.16;4921148;29;20070;-59
2022/03/02 05:31:06;;;;;;;69.22;28.50;;;;;;;0.35;100.00;101123.63;4948085;29;20106;-57
2022/03/02 05:33:51;;;;;;;81.88;31.58;;;;;;;0.42;100.00;101120.47;4931507;29;20154;-54
2022/03/02 05:36:38;;;;;;;81.05;30.88;;;;;;;0.34;100.00;101090.56;4933991;29;20174;-60
2022/03/02 05:39:23;;;;;;;80.60;31.40;;;;;;;0.25;100.00;101074.53;4935508;29;20046;-57
2022/03/02 05:42:08;;;;;;;44.63;17.17;;;;;;;0.33;100.00;101116.56;4933702;29;20074;-58
2022/03/02 05:44:53;;;;;;;42.95;16.00;;;;;;;-0.28;100.00;101085.28;4921839;29;20444;-57
2022/03/02 05:47:39;;;;;;;33.30;13.25;;;;;;;-0.15;100.00;101107.56;4948061;29;20083;-56
2022/03/02 05:50:24;;;;;;;29.48;11.93;;;;;;;-0.39;100.00;101107.38;4943910;28;20055;-58
2022/03/02 05:53:08;;;;;;;35.85;14.18;;;;;;;-0.73;100.00;101085.84;4937530;29;20215;-59
2022/03/02 05:55:52;;;;;;;30.73;13.50;;;;;;;-0.40;100.00;101104.69;4947971;29;20050;-59
2022/03/02 05:58:37;;;;;;;32.25;14.05;;;;;;;-0.27;100.00;101097.47;4949366;29;20066;-60
2022/03/02 06:01:22;;;;;;;30.35;13.88;;;;;;;-0.12;100.00;101103.38;4946463;29;20646;-63
2022/03/02 06:04:07;;;;;;;32.38;14.00;;;;;;;-0.02;100.00;101095.13;4949528;29;20105;-52
2022/03/02 06:06:51;;;;;;;39.03;15.68;;;;;;;-0.09;100.00;101108.72;4947629;29;20050;-57
2022/03/02 06:09:36;;;;;;;37.15;15.27;;;;;;;0.12;100.00;101103.56;4950117;29;20526;-63
2022/03/02 06:12:21;;;;;;;39.60;14.88;;;;;;;0.13;100.00;101074.03;4948283;29;20408;-61
2022/03/02 06:15:07;;;;;;;43.72;15.30;;;;;;;0.35;100.00;101094.06;4950044;29;20420;-60
2022/03/02 06:17:52;;;;;;;33.28;15.65;;;;;;;0.30;100.00;101048.63;4924212;29;20054;-64
2022/03/02 06:20:37;;;;;;;;;;;;;;;0.68;100.00;101095.44;4949142;29;20130;-67
2022/03/02 06:23:22;;;;;;;43.00;15.27;;;;;;;0.84;100.00;101079.56;4950417;29;19990;-64
2022/03/02 06:26:07;;;;;;;33.58;14.38;;;;;;;0.82;100.00;101089.94;4930584;29;20420;-63
2022/03/02 06:28:52;;;;;;;33.03;15.48;;;;;;;0.80;100.00;101077.66;4949401;29;20058;-65
2022/03/02 06:31:36;;;;;;;;;;;;;;;0.85;100.00;101081.31;4948608;29;20518;-65
2022/03/02 06:34:21;;;;;;;40.17;15.77;;;;;;;0.70;100.00;101078.13;4921415;29;19978;-57
2022/03/02 06:37:06;;;;;;;39.58;16.27;;;;;;;0.74;100.00;101088.75;4948443;29;20095;-57
2022/03/02 06:39:51;;;;;;;46.85;16.27;;;;;;;0.88;100.00;101084.97;4932127;29;20102;-66
2022/03/02 06:43:03;;;;;;;43.47;17.50;;;;;;;0.91;100.00;101045.03;4913469;29;20061;-60
2022/03/02 06:45:58;;;;;;;42.85;18.13;;;;;;;1.05;100.00;101081.28;4948189;29;20058;-59
2022/03/02 06:48:53;;;;;;;52.90;19.50;;;;;;;1.15;100.00;101074.69;4933523;29;20146;-61
2022/03/02 06:51:43;;;;;;;58.22;20.17;;;;;;;1.00;100.00;101077.63;4934029;29;20137;-68
2022/03/02 06:54:30;;;;;;;60.75;21.67;;;;;;;0.93;100.00;101077.28;4918820;29;20055;-61
2022/03/02 06:57:18;;;;;;;51.75;20.13;;;;;;;0.81;100.00;101069.88;4919419;29;20082;-58
2022/03/02 07:00:16;;;;;;;48.33;20.27;;;;;;;1.04;100.00;101057.72;4934693;29;20058;-63
2022/03/02 07:03:09;;;;;;;56.50;20.60;;;;;;;1.21;100.00;101061.84;4919481;29;20138;-61
2022/03/02 07:05:55;;;;;;;45.22;19.65;;;;;;;1.02;100.00;101060.25;4948408;29;20046;-62
2022/03/02 07:08:43;;;;;;;38.65;19.00;;;;;;;0.46;100.00;101057.16;4933871;29;20049;-61
2022/03/02 07:11:27;;;;;;;46.22;20.15;;;;;;;0.13;100.00;101050.56;4947375;29;20503;-63
2022/03/02 07:14:15;;;;;;;44.47;18.45;;;;;;;0.20;100.00;101050.00;4949728;29;20222;-63
2022/03/02 07:17:02;;;;;;;38.97;19.25;;;;;;;0.29;100.00;101062.50;4924114;29;20423;-70
2022/03/02 07:19:48;;;;;;;49.17;19.98;;;;;;;0.11;100.00;101046.13;4911505;29;20058;-65
2022/03/02 07:22:35;;;;;;;59.08;22.85;;;;;;;0.38;100.00;101057.66;4938232;29;20118;-61
2022/03/02 07:25:21;;;;;;;60.53;24.23;;;;;;;0.54;100.00;101050.53;4892794;29;20094;-61
2022/03/02 07:28:10;;;;;;;73.82;25.17;;;;;;;0.93;100.00;101056.41;4932103;29;20054;-60
2022/03/02 07:30:57;;;;;;;87.22;23.30;;;;;;;1.14;100.00;101049.41;4924063;29;20146;-59
2022/03/02 07:33:43;;;;;;;56.22;22.95;;;;;;;1.40;100.00;101040.81;4951709;29;20117;-61
2022/03/02 07:36:28;;;;;;;76.55;22.42;;;;;;;1.70;100.00;101041.91;4910761;29;20118;-61
2022/03/02 07:39:13;;;;;;;79.13;23.35;;;;;;;1.98;100.00;101042.03;4910889;29;20118;-60
2022/03/02 07:41:57;;;;;;;78.93;24.95;;;;;;;2.24;100.00;101041.16;4950729;29;20054;-65
2022/03/02 07:44:42;;;;;;;76.15;24.13;;;;;;;2.32;100.00;101013.53;4936514;29;20174;-61
2022/03/02 07:47:27;;;;;;;77.22;24.30;;;;;;;2.68;100.00;101036.53;4947890;29;20058;-62
2022/03/02 07:50:13;;;;;;;47.65;20.15;;;;;;;2.72;100.00;101035.78;4951253;29;20162;-60
2022/03/02 07:53:01;;;;;;;57.28;20.13;;;;;;;2.84;100.00;101038.78;4925193;29;20859;-60
2022/03/02 07:55:47;;;;;;;45.40;18.52;;;;;;;2.87;100.00;101028.41;4933212;29;20054;-65
2022/03/02 07:58:32;;;;;;;46.25;17.15;;;;;;;2.99;100.00;101020.03;4936220;29;20054;-62
2022/03/02 08:01:18;;;;;;;48.42;17.85;;;;;;;2.88;98.15;100993.50;4934789;29;20101;-60
2022/03/02 08:04:08;;;;;;;44.78;16.70;;;;;;;2.94;96.76;101024.25;4924117;29;20062;-55
2022/03/02 08:06:53;;;;;;;46.70;15.52;;;;;;;2.95;96.63;101026.03;4949536;29;20135;-54
2022/03/02 08:09:38;;;;;;;52.92;18.38;;;;;;;3.13;96.27;101011.72;4935680;29;20054;-54
2022/03/02 08:12:24;;;;;;;43.03;16.05;;;;;;;3.10;94.26;100990.69;4924317;28;20110;-57
2022/03/02 08:15:09;;;;;;;33.28;13.95;;;;;;;3.03;93.53;100962.53;4936305;29;20046;-56
2022/03/02 08:17:54;;;;;;;40.85;16.13;;;;;;;4.99;89.15;100999.97;4908510;29;20102;-54
2022/03/02 08:20:51;;;;;;;40.13;16.20;;;;;;;8.06;73.60;100974.97;4922905;29;20502;-57
2022/03/02 08:23:38;;;;;;;42.45;15.50;;;;;;;9.93;56.49;100987.50;4948633;29;20137;-58
2022/03/02 08:26:25;;;;;;;31.85;13.90;;;;;;;12.00;45.11;101003.09;4937109;29;20059;-57
2022/03/02 08:29:11;;;;;;;35.38;15.40;;;;;;;12.62;37.97;100965.38;4930234;29;20059;-62
2022/03/02 08:32:02;;;;;;;29.73;13.48;;;;;;;14.73;33.67;100998.13;4905253;29;20066;-62
2022/03/02 08:34:50;;;;;;;38.03;15.13;;;;;;;15.49;29.74;100988.69;4932591;29;20578;-60
2022/03/02 08:37:35;;;;;;;43.75;15.90;;;;;;;16.53;28.84;100978.28;4921691;29;20106;-63
2022/03/02 08:40:19;;;;;;;;;;;;;;;17.39;36.16;100990.25;4949939;29;20431;-63
2022/03/02 08:43:05;;;;;;;38.28;16.45;;;;;;;17.58;26.89;100956.66;4946983;29;20389;-62
2022/03/02 08:45:51;;;;;;;26.55;13.02;;;;;;;17.35;27.97;100977.84;4910433;29;20046;-63
2022/03/02 08:48:36;;;;;;;32.08;13.32;;;;;;;17.45;26.75;100974.03;4922081;29;20065;-60
2022/03/02 08:51:22;;;;;;;31.40;12.30;;;;;;;16.67;26.82;100963.63;4936855;29;20081;-62
2022/03/02 08:54:06;;;;;;;36.22;13.30;;;;;;;17.30;26.38;100963.69;4948495;29;20045;-62
2022/03/02 08:56:53;;;;;;;24.67;12.23;;;;;;;16.92;25.94;100959.38;4947249;29;20058;-64
2022/03/02 08:59:39;;;;;;;31.20;12.25;;;;;;;16.15;26.16;100960.47;4956820;28;20171;-61
2022/03/02 09:02:27;;;;;;;22.23;12.07;;;;;;;16.27;27.79;100953.91;4912373;29;20119;-65
2022/03/02 09:05:12;;;;;;;19.95;10.75;;;;;;;18.59;23.80;100958.81;4942805;28;20062;-61
2022/03/02 09:07:57;;;;;;;20.73;9.57;;;;;;;18.46;23.02;100944.91;4943048;29;20057;-60
2022/03/02 09:10:42;;;;;;;16.13;7.13;;;;;;;19.58;20.07;100944.47;4937695;29;20578;-65
2022/03/02 09:13:28;;;;;;;16.52;8.10;;;;;;;20.17;19.27;100943.91;4938475;29;20054;-61
2022/03/02 09:16:13;;;;;;;18.27;8.00;;;;;;;20.71;19.06;100935.34;4907471;29;20109;-62
2022/03/02 09:18:58;;;;;;;13.93;6.15;;;;;;;21.88;17.36;100941.69;4922064;29;20416;-65
2022/03/02 09:21:44;;;;;;;19.83;7.75;;;;;;;22.15;18.41;100942.19;4948695;29;20773;-58
2022/03/02 09:24:30;;;;;;;17.38;6.25;;;;;;;20.17;18.62;100929.59;4951281;28;20109;-64
2022/03/02 09:27:18;;;;;;;14.60;6.22;;;;;;;19.03;19.92;100931.25;4915141;29;20503;-63
2022/03/02 09:30:06;;;;;;;10.98;4.97;;;;;;;17.99;21.07;100919.56;4920880;29;20058;-64
2022/03/02 09:32:53;;;;;;;18.55;6.05;;;;;;;17.56;21.91;100910.19;4949713;29;20101;-63
2022/03/02 09:35:39;;;;;;;15.35;7.15;;;;;;;17.82;22.69;100904.91;4948873;29;20717;-63
2022/03/02 09:38:24;;;;;;;19.02;7.03;;;;;;;18.20;21.55;100871.47;4935480;29;20415;-68
2022/03/02 09:41:17;;;;;;;10.55;5.07;;;;;;;19.20;20.23;100897.44;4949032;29;20062;-63
2022/03/02 09:44:04;;;;;;;13.93;5.40;;;;;;;19.04;20.68;100895.38;4947577;29;20585;-64
2022/03/02 09:46:56;;;;;;;14.27;6.05;;;;;;;19.91;19.99;100895.59;4935230;29;20117;-63
2022/03/02 09:49:47;;;;;;;12.35;5.43;;;;;;;20.43;18.85;100837.75;4947740;29;20191;-62
2022/03/02 09:52:37;;;;;;;11.98;5.05;;;;;;;20.12;19.08;100889.34;4933425;29;20069;-63
2022/03/02 09:55:24;;;;;;;13.63;6.05;;;;;;;21.34;17.43;100892.97;4948260;29;20063;-63
2022/03/02 09:58:14;;;;;;;13.52;6.15;;;;;;;21.03;17.82;100884.50;4934400;29;20129;-62
2022/03/02 10:01:00;;;;;;;14.95;5.82;;;;;;;21.19;18.88;100890.06;4943656;29;20555;-62
2022/03/02 10:03:47;;;;;;;22.45;5.90;;;;;;;20.73;18.45;100875.03;4903383;29;20055;-68
2022/03/02 10:06:36;;;;;;;9.00;5.28;;;;;;;21.40;17.80;100838.69;4920277;29;20074;-65
2022/03/02 10:09:24;;;;;;;8.00;4.28;;;;;;;19.74;19.07;100854.97;4935101;29;20053;-63
2022/03/02 10:12:10;;;;;;;11.65;5.00;;;;;;;19.46;19.45;100869.59;4920858;29;20126;-61
2022/03/02 10:14:55;;;;;;;8.20;4.38;;;;;;;20.47;18.60;100863.63;4947442;29;20054;-64
2022/03/02 10:17:41;;;;;;;;;;;;;;;20.74;18.91;100854.34;4935198;29;20077;-66
2022/03/02 10:20:28;;;;;;;10.15;3.97;;;;;;;22.63;16.15;100865.91;4918451;29;19925;-65
2022/03/02 10:23:34;;;;;;;8.38;3.38;;;;;;;22.16;16.57;100860.19;4933204;29;20133;-60
2022/03/02 10:26:24;;;;;;;7.85;3.50;;;;;;;23.28;15.32;100856.06;4936212;29;20054;-63
2022/03/02 10:29:19;;;;;;;8.25;3.22;;;;;;;23.58;14.37;100854.34;4919921;29;20062;-62
2022/03/02 10:32:08;;;;;;;7.53;3.08;;;;;;;21.05;15.86;100822.41;4945383;29;20098;-63
2022/03/02 10:35:02;;;;;;;8.43;2.80;;;;;;;22.35;15.53;100838.50;4949296;29;20098;-68
2022/03/02 10:38:17;;;;;;;5.55;2.47;;;;;;;21.80;15.23;100837.69;4951268;29;20519;-62
2022/03/02 10:41:03;;;;;;;5.10;2.65;;;;;;;21.24;15.90;100834.09;4951217;29;20178;-62
2022/03/02 10:43:56;;;;;;;7.95;2.70;;;;;;;22.34;15.04;100829.50;4921562;29;20534;-58
2022/03/02 10:46:46;;;;;;;6.85;2.40;;;;;;;23.55;14.16;100832.00;4924827;29;20046;-63
2022/03/02 10:49:34;;;;;;;6.13;2.22;;;;;;;22.55;14.49;100830.28;4925036;29;20070;-60
2022/03/02 10:52:22;;;;;;;8.02;2.67;;;;;;;22.55;14.94;100817.66;4935503;29;20078;-64
2022/03/02 10:55:10;;;;;;;6.80;2.78;;;;;;;20.81;15.39;100794.69;4937440;29;20062;-59
2022/03/02 10:57:57;;;;;;;8.55;2.70;;;;;;;21.60;15.13;100816.16;4937551;29;20518;-62
2022/03/02 11:00:42;;;;;;;5.88;2.33;;;;;;;20.78;15.73;100811.00;4947955;29;20105;-67
2022/03/02 11:03:29;;;;;;;5.03;2.80;;;;;;;19.81;16.84;100807.16;4938373;29;20093;-64
2022/03/02 11:06:14;;;;;;;5.05;2.47;;;;;;;20.09;16.92;100791.63;4922510;29;20534;-63
2022/03/02 11:09:03;;;;;;;4.75;2.67;;;;;;;19.96;16.35;100793.94;4949877;29;20135;-63
2022/03/02 11:11:49;;;;;;;8.82;2.72;;;;;;;19.28;16.73;100784.22;4925326;29;20113;-63
2022/03/02 11:14:34;;;;;;;14.40;2.60;;;;;;;20.52;16.59;100789.72;4925673;29;20058;-62
2022/03/02 11:17:18;;;;;;;;;;;;;;;21.34;16.40;100787.72;4954193;29;20130;-62
2022/03/02 11:20:09;;;;;;;4.68;2.30;;;;;;;22.20;15.15;100788.81;4955365;28;19945;-65
2022/03/02 11:22:59;;;;;;;7.60;2.88;;;;;;;21.86;14.83;100784.25;4938889;29;20138;-63
2022/03/02 11:25:46;;;;;;;4.80;2.47;;;;;;;21.80;14.73;100783.69;4925156;29;20074;-63
2022/03/02 11:28:31;;;;;;;6.53;2.80;;;;;;;21.84;14.63;100779.88;4925111;29;20129;-69
2022/03/02 11:31:54;;;;;;;6.38;2.30;;;;;;;20.95;15.84;100776.09;4938613;29;20467;-59
2022/03/02 11:34:43;;;;;;;5.82;2.80;;;;;;;19.47;16.44;100764.63;4938905;29;20063;-59
2022/03/02 11:37:28;;;;;;;4.43;2.72;;;;;;;20.10;15.76;100724.25;4953418;29;20456;-61
2022/03/02 11:40:15;;;;;;;4.88;2.25;;;;;;;19.11;16.17;100757.09;4952671;29;20082;-58
2022/03/02 11:43:15;;;;;;;7.60;2.80;;;;;;;20.01;16.55;100746.16;4953282;29;20065;-59
2022/03/02 11:46:05;;;;;;;6.60;3.20;;;;;;;19.68;16.20;100747.59;4937797;29;20058;-60
2022/03/02 11:48:51;;;;;;;5.40;2.83;;;;;;;19.23;16.84;100744.03;4936002;29;20062;-64
2022/03/02 11:51:36;;;;;;;6.72;3.05;;;;;;;18.59;17.36;100744.72;4910935;29;20133;-57
2022/03/02 11:54:21;;;;;;;7.63;2.80;;;;;;;16.83;18.37;100734.59;4931292;29;20047;-59
2022/03/02 11:57:06;;;;;;;7.63;3.50;;;;;;;16.68;18.26;100723.44;4946678;29;20411;-56
2022/03/02 12:00:06;;;;;;;13.02;4.20;;;;;;;16.46;19.88;100693.72;4936238;29;20066;-59
2022/03/02 12:02:59;;;;;;;13.55;4.03;;;;;;;16.53;20.13;100719.41;4936740;29;20057;-57
2022/03/02 12:05:43;;;;;;;8.68;3.50;;;;;;;17.04;19.67;100716.97;4937098;29;20472;-59
2022/03/02 12:08:32;;;;;;;7.75;3.70;;;;;;;16.58;19.76;100673.78;4924205;29;20101;-58
2022/03/02 12:11:26;;;;;;;11.88;4.10;;;;;;;16.51;20.11;100709.69;4937702;29;20054;-62
2022/03/02 12:14:15;;;;;;;;;;;;;;;16.64;19.50;100697.66;4953146;28;20058;-59
2022/03/02 12:17:11;;;;;;;9.40;3.50;;;;;;;16.27;20.31;100689.81;4934531;29;19976;-56
2022/03/02 12:20:07;;;;;;;8.57;3.88;;;;;;;15.06;21.31;100696.53;4935469;29;20066;-61
2022/03/02 12:22:55;;;;;;;8.65;3.97;;;;;;;14.71;22.01;100691.09;4936145;29;20146;-56
2022/03/02 12:25:45;;;;;;;9.52;4.40;;;;;;;14.30;22.57;100677.78;4949175;29;20075;-57
2022/03/02 12:28:30;;;;;;;12.80;3.80;;;;;;;15.08;22.43;100677.81;4933917;29;20198;-60
2022/03/02 12:31:15;;;;;;;10.18;4.10;;;;;;;14.64;22.63;100673.47;4952286;29;20090;-58
2022/03/02 12:34:13;;;;;;;9.73;3.65;;;;;;;14.08;23.63;100670.22;4932138;29;20089;-58
2022/03/02 12:36:58;;;;;;;10.00;4.20;;;;;;;14.18;23.63;100669.09;4950678;29;20050;-60
2022/03/02 12:39:43;;;;;;;10.65;3.97;;;;;;;13.08;24.37;100660.47;4937084;29;20050;-57
2022/03/02 12:42:27;;;;;;;11.45;4.03;;;;;;;12.89;25.46;100658.94;4935176;29;20062;-56